Time;durP1;ratioP1;P1;durP2;ratioP2;P2;SDS_P1;SDS_P2;PMS_P1;PMS_P2;Temp;Humidity;BMP_temperature;BMP_pressure;BME280_temperature;BME280_humidity;BME280_pressure;Samples;Min_cycle;Max_cycle;Signal;HPM_P1;HPM_P2
2022/02/22 00:00:26;;;;;;;27.23;6.75;;;8.00;99.90;;;;;;2104025;28;20031;-70
2022/02/22 00:01:26;;;;;;;37.35;6.97;;;8.10;99.90;;;;;;2101656;28;20047;-71
2022/02/22 00:02:27;;;;;;;33.47;7.55;;;8.10;99.90;;;;;;2102866;28;20020;-71
2022/02/22 00:03:28;;;;;;;29.25;6.47;;;8.10;99.90;;;;;;2104628;28;20558;-71
2022/02/22 00:04:33;;;;;;;31.98;7.43;;;8.10;99.90;;;;;;2103983;28;20020;-71
2022/02/22 00:05:34;;;;;;;37.35;7.15;;;8.10;99.90;;;;;;2099663;28;20024;-71
2022/02/22 00:06:35;;;;;;;36.05;7.85;;;8.10;99.90;;;;;;2103265;28;20081;-71
2022/02/22 00:07:35;;;;;;;31.88;7.97;;;8.10;99.90;;;;;;2102458;28;20674;-71
2022/02/22 00:08:36;;;;;;;31.85;7.57;;;8.10;99.90;;;;;;2102891;28;20056;-71
2022/02/22 00:09:36;;;;;;;38.78;8.00;;;8.10;99.90;;;;;;2103967;28;20049;-70
2022/02/22 00:10:37;;;;;;;30.67;7.15;;;8.10;99.90;;;;;;2105043;28;20024;-70
2022/02/22 00:11:38;;;;;;;34.50;8.00;;;8.10;99.90;;;;;;2103689;28;20029;-71
2022/02/22 00:12:39;;;;;;;26.95;7.13;;;8.10;99.90;;;;;;2102979;28;20432;-71
2022/02/22 00:13:39;;;;;;;35.08;7.80;;;8.10;99.90;;;;;;2101743;28;20024;-71
2022/02/22 00:14:40;;;;;;;34.45;7.10;;;8.10;99.90;;;;;;2104536;28;20054;-71
2022/02/22 00:15:40;;;;;;;29.10;6.80;;;8.10;99.90;;;;;;2103672;28;20815;-71
2022/02/22 00:16:41;;;;;;;36.20;7.60;;;8.10;99.90;;;;;;2103726;28;20699;-71
2022/02/22 00:17:41;;;;;;;33.05;8.32;;;8.10;99.90;;;;;;2105020;28;20096;-71
2022/02/22 00:18:42;;;;;;;33.70;7.88;;;8.10;99.90;;;;;;2103947;28;20554;-71
2022/02/22 00:19:43;;;;;;;29.45;6.07;;;8.10;99.90;;;;;;2102696;28;20058;-71
2022/02/22 00:20:44;;;;;;;27.98;6.38;;;8.10;99.90;;;;;;2105286;28;20473;-71
2022/02/22 00:21:44;;;;;;;26.23;5.82;;;8.00;99.90;;;;;;2105259;28;20027;-71
2022/02/22 00:22:45;;;;;;;30.83;6.25;;;8.00;99.90;;;;;;2105501;28;20404;-71
2022/02/22 00:23:46;;;;;;;30.90;7.85;;;8.00;99.90;;;;;;2103355;28;20020;-71
2022/02/22 00:24:46;;;;;;;29.83;6.47;;;8.00;99.90;;;;;;2102702;28;20027;-72
2022/02/22 00:25:47;;;;;;;31.63;6.75;;;7.90;99.90;;;;;;2101789;28;20036;-72
2022/02/22 00:26:48;;;;;;;27.00;6.72;;;7.90;99.90;;;;;;2102737;28;20032;-71
2022/02/22 00:27:48;;;;;;;26.13;6.05;;;7.90;99.90;;;;;;2100740;28;20028;-71
2022/02/22 00:28:49;;;;;;;34.67;7.57;;;7.90;99.90;;;;;;2103597;28;20112;-71
2022/02/22 00:29:49;;;;;;;28.70;7.55;;;7.90;99.90;;;;;;2103394;28;20125;-71
2022/02/22 00:30:50;;;;;;;27.42;6.30;;;7.90;99.90;;;;;;2104608;28;20028;-71
2022/02/22 00:31:52;;;;;;;36.25;7.80;;;7.90;99.90;;;;;;2103894;28;20032;-71
2022/02/22 00:32:52;;;;;;;37.95;7.63;;;7.90;99.90;;;;;;2104311;28;20031;-71
2022/02/22 00:33:53;;;;;;;30.25;6.85;;;7.90;99.90;;;;;;2105240;28;20028;-71
2022/02/22 00:34:53;;;;;;;33.30;6.95;;;7.90;99.90;;;;;;2103095;28;20032;-72
2022/02/22 00:35:54;;;;;;;37.80;8.65;;;7.90;99.90;;;;;;2104060;28;20384;-71
2022/02/22 00:36:55;;;;;;;29.73;7.57;;;7.90;99.90;;;;;;2102371;28;20074;-71
2022/02/22 00:37:55;;;;;;;36.47;7.53;;;7.90;99.90;;;;;;2105195;28;20027;-71
2022/02/22 00:38:57;;;;;;;33.40;6.93;;;7.90;99.90;;;;;;2102333;28;20063;-71
2022/02/22 00:39:57;;;;;;;36.55;6.97;;;7.90;99.90;;;;;;2104564;28;20413;-71
2022/02/22 00:40:58;;;;;;;39.17;7.70;;;7.90;99.90;;;;;;2101079;28;20032;-72
2022/02/22 00:41:58;;;;;;;28.27;6.65;;;7.90;99.90;;;;;;2102398;28;20059;-71
2022/02/22 00:42:59;;;;;;;31.50;7.90;;;7.90;99.90;;;;;;2103689;28;20024;-72
2022/02/22 00:43:59;;;;;;;31.55;7.72;;;7.90;99.90;;;;;;2103808;28;20115;-71
2022/02/22 00:45:01;;;;;;;33.60;7.22;;;7.90;99.90;;;;;;2102696;28;20469;-71
2022/02/22 00:46:02;;;;;;;29.75;6.78;;;7.90;99.90;;;;;;2104001;28;20024;-71
2022/02/22 00:47:02;;;;;;;29.67;7.15;;;7.80;99.90;;;;;;2103056;28;20056;-71
2022/02/22 00:48:03;;;;;;;29.38;6.45;;;7.80;99.90;;;;;;2102977;28;20028;-72
2022/02/22 00:49:04;;;;;;;36.33;7.63;;;7.80;99.90;;;;;;2102298;28;20031;-71
2022/02/22 00:50:06;;;;;;;25.38;7.05;;;7.80;99.90;;;;;;2104932;28;20048;-71
2022/02/22 00:51:06;;;;;;;36.97;8.40;;;7.80;99.90;;;;;;2104467;28;20085;-71
2022/02/22 00:52:07;;;;;;;36.38;7.70;;;7.80;99.90;;;;;;2101694;28;20020;-71
2022/02/22 00:53:07;;;;;;;33.83;7.22;;;7.80;99.90;;;;;;2103732;28;20059;-71
2022/02/22 00:54:08;;;;;;;32.13;7.43;;;7.80;99.90;;;;;;2100925;28;20029;-72
2022/02/22 00:55:09;;;;;;;32.63;7.15;;;7.80;99.90;;;;;;2103778;28;20035;-71
2022/02/22 00:56:10;;;;;;;31.40;7.30;;;7.80;99.90;;;;;;2103450;28;20055;-71
2022/02/22 00:57:10;;;;;;;41.17;8.00;;;7.80;99.90;;;;;;2104361;28;20024;-71
2022/02/22 00:58:11;;;;;;;31.13;7.47;;;7.80;99.90;;;;;;2100616;28;20020;-72
2022/02/22 00:59:11;;;;;;;39.95;7.50;;;7.80;99.90;;;;;;2104081;28;20095;-71
2022/02/22 01:00:13;;;;;;;35.03;6.40;;;7.80;99.90;;;;;;2103165;28;20035;-71
2022/02/22 01:01:17;;;;;;;35.75;8.13;;;7.80;99.90;;;;;;2104205;28;20026;-71
2022/02/22 01:02:18;;;;;;;26.95;6.03;;;7.80;99.90;;;;;;2104070;28;20064;-72
2022/02/22 01:03:18;;;;;;;34.55;7.00;;;7.80;99.90;;;;;;2103082;28;20032;-72
2022/02/22 01:04:19;;;;;;;35.67;6.93;;;7.70;99.90;;;;;;2104155;28;20058;-71
2022/02/22 01:05:19;;;;;;;29.38;6.13;;;7.70;99.90;;;;;;2104680;28;20012;-71
2022/02/22 01:06:20;;;;;;;26.90;5.57;;;7.80;99.90;;;;;;2103155;28;20024;-71
2022/02/22 01:07:21;;;;;;;28.00;6.25;;;7.80;99.90;;;;;;2103464;28;20024;-71
2022/02/22 01:08:22;;;;;;;20.13;5.50;;;7.70;99.90;;;;;;2103079;28;20024;-72
2022/02/22 01:09:23;;;;;;;23.73;5.85;;;7.80;99.90;;;;;;2105062;28;20059;-71
2022/02/22 01:10:24;;;;;;;26.77;5.38;;;7.70;99.90;;;;;;2103556;28;20024;-71
2022/02/22 01:11:24;;;;;;;21.50;4.85;;;7.70;99.90;;;;;;2104018;28;20028;-71
2022/02/22 01:12:25;;;;;;;21.23;5.07;;;7.70;99.90;;;;;;2103251;28;20048;-71
2022/02/22 01:13:26;;;;;;;20.80;5.13;;;7.70;99.90;;;;;;2104910;28;20418;-71
2022/02/22 01:14:26;;;;;;;19.17;4.80;;;7.70;99.90;;;;;;2103987;28;20052;-71
2022/02/22 01:15:27;;;;;;;20.63;4.43;;;7.60;99.90;;;;;;2101118;28;20016;-71
2022/02/22 01:16:27;;;;;;;19.45;4.88;;;7.70;99.90;;;;;;2100335;28;20025;-72
2022/02/22 01:17:28;;;;;;;15.75;3.60;;;7.70;99.90;;;;;;2099691;28;20020;-71
2022/02/22 01:18:28;;;;;;;15.85;3.97;;;7.60;99.90;;;;;;2102410;28;20020;-71
2022/02/22 01:19:29;;;;;;;17.02;3.88;;;7.60;99.90;;;;;;2105119;28;20821;-71
2022/02/22 01:20:30;;;;;;;18.73;4.03;;;7.60;99.90;;;;;;2101063;28;20101;-71
2022/02/22 01:21:32;;;;;;;14.90;4.35;;;7.60;99.90;;;;;;2102763;28;20512;-71
2022/02/22 01:22:32;;;;;;;18.83;3.90;;;7.60;99.90;;;;;;2103210;28;20444;-71
2022/02/22 01:23:33;;;;;;;14.63;4.18;;;7.60;99.90;;;;;;2101744;28;20545;-71
2022/02/22 01:24:34;;;;;;;25.23;4.68;;;7.60;99.90;;;;;;2104877;28;20533;-71
2022/02/22 01:25:34;;;;;;;19.20;4.32;;;7.60;99.90;;;;;;2102224;28;20020;-72
2022/02/22 01:26:35;;;;;;;18.92;4.60;;;7.60;99.90;;;;;;2102845;28;20098;-72
2022/02/22 01:27:37;;;;;;;18.80;4.00;;;7.50;99.90;;;;;;2101338;28;20055;-71
2022/02/22 01:28:37;;;;;;;16.67;3.97;;;7.50;99.90;;;;;;2101677;28;20016;-71
2022/02/22 01:29:38;;;;;;;22.15;4.75;;;7.60;99.90;;;;;;2103141;28;20073;-71
2022/02/22 01:30:38;;;;;;;21.60;4.43;;;7.50;99.90;;;;;;2104199;28;20028;-71
2022/02/22 01:31:39;;;;;;;16.52;3.97;;;7.50;99.90;;;;;;2104810;28;20053;-71
2022/02/22 01:32:40;;;;;;;20.90;4.70;;;7.60;99.90;;;;;;2103398;28;20045;-71
2022/02/22 01:33:40;;;;;;;15.98;4.55;;;7.50;99.90;;;;;;2103760;28;20673;-71
2022/02/22 01:34:41;;;;;;;24.05;4.82;;;7.50;99.90;;;;;;2102681;28;20029;-71
2022/02/22 01:35:41;;;;;;;21.25;4.28;;;7.50;99.90;;;;;;2103310;28;20802;-71
2022/02/22 01:36:42;;;;;;;18.83;4.93;;;7.50;99.90;;;;;;2104538;28;20054;-71
2022/02/22 01:37:42;;;;;;;19.00;4.63;;;7.50;99.90;;;;;;2104954;28;20135;-71
2022/02/22 01:38:44;;;;;;;16.08;4.07;;;7.50;99.90;;;;;;2103396;28;20024;-71
2022/02/22 01:39:45;;;;;;;19.33;5.13;;;7.50;99.90;;;;;;2105143;28;20031;-71
2022/02/22 01:40:46;;;;;;;21.48;5.18;;;7.50;99.90;;;;;;2107907;28;20028;-71
2022/02/22 01:41:46;;;;;;;20.38;4.28;;;7.50;99.90;;;;;;2103076;28;20031;-71
2022/02/22 01:42:47;;;;;;;16.40;4.13;;;7.50;99.90;;;;;;2101133;28;20026;-71
2022/02/22 01:43:48;;;;;;;17.02;4.30;;;7.40;99.90;;;;;;2104953;28;20024;-71
2022/02/22 01:44:49;;;;;;;20.25;5.32;;;7.40;99.90;;;;;;2104061;28;20028;-71
2022/02/22 01:45:50;;;;;;;16.73;4.85;;;7.40;99.90;;;;;;2103746;28;20376;-71
2022/02/22 01:46:58;;;;;;;19.80;4.78;;;7.40;99.90;;;;;;2104870;28;20102;-71
2022/02/22 01:47:59;;;;;;;22.77;5.10;;;7.30;99.90;;;;;;2102757;28;20078;-71
2022/02/22 01:49:00;;;;;;;23.70;4.93;;;7.30;99.90;;;;;;2102605;28;20024;-71
2022/02/22 01:50:01;;;;;;;20.98;4.43;;;7.30;99.90;;;;;;2103213;28;20024;-71
2022/02/22 01:51:01;;;;;;;24.20;6.20;;;7.30;99.90;;;;;;2104667;28;20032;-71
2022/02/22 01:52:03;;;;;;;29.23;7.40;;;7.30;99.90;;;;;;2103388;28;20024;-71
2022/02/22 01:53:04;;;;;;;20.60;5.07;;;7.30;99.90;;;;;;2103970;28;20052;-71
2022/02/22 01:54:04;;;;;;;21.15;5.78;;;7.20;99.90;;;;;;2100619;28;20073;-71
2022/02/22 01:55:06;;;;;;;27.63;7.28;;;7.20;99.90;;;;;;2102876;28;20032;-71
2022/02/22 01:56:07;;;;;;;25.95;7.50;;;7.20;99.90;;;;;;2103271;28;20056;-71
2022/02/22 01:57:08;;;;;;;27.55;7.18;;;7.20;99.90;;;;;;2102964;28;20112;-71
2022/02/22 01:58:09;;;;;;;34.20;6.68;;;7.20;99.90;;;;;;2102245;28;20028;-71
2022/02/22 01:59:10;;;;;;;30.63;6.80;;;7.20;99.90;;;;;;2103828;28;20012;-71
2022/02/22 02:00:13;;;;;;;28.52;7.88;;;7.20;99.90;;;;;;2104247;28;20487;-71
2022/02/22 02:01:13;;;;;;;31.75;7.45;;;7.20;99.90;;;;;;2103278;28;20468;-71
2022/02/22 02:02:14;;;;;;;32.13;7.35;;;7.10;99.90;;;;;;2101682;28;20444;-71
2022/02/22 02:03:16;;;;;;;36.00;8.45;;;7.10;99.90;;;;;;2104206;28;20081;-71
2022/02/22 02:04:16;;;;;;;31.05;8.00;;;7.10;99.90;;;;;;2102301;28;20051;-71
2022/02/22 02:05:17;;;;;;;33.92;8.27;;;7.10;99.90;;;;;;2104424;28;20048;-71
2022/02/22 02:06:18;;;;;;;28.85;7.60;;;7.10;99.90;;;;;;2104135;28;20202;-71
2022/02/22 02:07:19;;;;;;;33.88;7.38;;;7.10;99.90;;;;;;2104227;28;20026;-71
2022/02/22 02:08:19;;;;;;;31.55;7.80;;;7.10;99.90;;;;;;2101691;28;20032;-71
2022/02/22 02:09:20;;;;;;;34.92;8.05;;;7.10;99.90;;;;;;2104053;28;20035;-71
2022/02/22 02:10:20;;;;;;;37.38;7.97;;;7.10;99.90;;;;;;2101168;28;20028;-71
2022/02/22 02:11:21;;;;;;;35.17;7.78;;;7.00;99.90;;;;;;2095393;28;20101;-72
2022/02/22 02:12:21;;;;;;;35.80;8.23;;;7.00;99.90;;;;;;2100882;28;20028;-71
2022/02/22 02:13:22;;;;;;;37.42;7.68;;;7.00;99.90;;;;;;2104660;28;20028;-71
2022/02/22 02:14:24;;;;;;;36.28;7.90;;;7.00;99.90;;;;;;2103805;28;20024;-71
2022/02/22 02:15:24;;;;;;;35.47;9.18;;;7.00;99.90;;;;;;2104065;28;20028;-71
2022/02/22 02:16:25;;;;;;;34.60;8.43;;;7.00;99.90;;;;;;2104190;28;20652;-71
2022/02/22 02:17:25;;;;;;;31.73;8.13;;;7.00;99.90;;;;;;2101337;28;20072;-71
2022/02/22 02:18:26;;;;;;;42.42;8.75;;;7.00;99.90;;;;;;2101540;28;20025;-71
2022/02/22 02:19:26;;;;;;;40.67;8.75;;;7.00;99.90;;;;;;2101187;28;20511;-71
2022/02/22 02:20:27;;;;;;;41.88;8.65;;;7.00;99.90;;;;;;2104252;28;20472;-71
2022/02/22 02:21:28;;;;;;;39.95;8.82;;;7.00;99.90;;;;;;2101823;28;20020;-71
2022/02/22 02:22:28;;;;;;;42.35;10.20;;;7.00;99.90;;;;;;2102916;28;20020;-71
2022/02/22 02:23:29;;;;;;;42.05;9.57;;;7.00;99.90;;;;;;2103262;28;20058;-71
2022/02/22 02:24:29;;;;;;;41.90;8.43;;;7.00;99.90;;;;;;2103691;28;20040;-71
2022/02/22 02:25:30;;;;;;;33.72;7.88;;;7.00;99.90;;;;;;2102783;28;20104;-71
2022/02/22 02:26:30;;;;;;;44.40;8.63;;;6.90;99.90;;;;;;2101985;28;20024;-71
2022/02/22 02:27:31;;;;;;;34.35;8.38;;;7.00;99.90;;;;;;2103957;28;20063;-71
2022/02/22 02:28:32;;;;;;;40.05;8.65;;;6.90;99.90;;;;;;2101586;28;20043;-71
2022/02/22 02:29:32;;;;;;;39.55;8.60;;;7.00;99.90;;;;;;2103786;28;20028;-71
2022/02/22 02:30:33;;;;;;;41.17;8.30;;;7.00;99.90;;;;;;2103076;28;20024;-71
2022/02/22 02:31:34;;;;;;;40.90;7.82;;;7.00;99.90;;;;;;2103726;28;20099;-71
2022/02/22 02:32:34;;;;;;;34.33;8.18;;;6.90;99.90;;;;;;2104944;28;20035;-71
2022/02/22 02:33:35;;;;;;;37.90;9.80;;;7.00;99.90;;;;;;2103828;28;20511;-71
2022/02/22 02:34:36;;;;;;;34.50;8.43;;;6.90;99.90;;;;;;2105437;28;20012;-71
2022/02/22 02:35:36;;;;;;;46.28;9.30;;;7.00;99.90;;;;;;2102953;28;20041;-71
2022/02/22 02:36:38;;;;;;;40.72;8.32;;;7.00;99.90;;;;;;2104746;28;20413;-71
2022/02/22 02:37:41;;;;;;;38.42;8.57;;;7.00;99.90;;;;;;2104243;28;20119;-71
2022/02/22 02:38:41;;;;;;;40.25;8.80;;;6.90;99.90;;;;;;2104553;28;20029;-71
2022/02/22 02:39:42;;;;;;;38.42;7.55;;;6.90;99.90;;;;;;2103949;28;20059;-71
2022/02/22 02:40:42;;;;;;;35.45;8.27;;;7.00;99.90;;;;;;2105139;28;20028;-71
2022/02/22 02:41:45;;;;;;;35.47;8.45;;;6.90;99.90;;;;;;2104906;28;20024;-71
2022/02/22 02:42:45;;;;;;;43.75;9.50;;;6.90;99.90;;;;;;2102620;28;20012;-71
2022/02/22 02:43:46;;;;;;;36.38;8.85;;;7.00;99.90;;;;;;2104235;28;20020;-71
2022/02/22 02:44:48;;;;;;;43.83;8.75;;;7.00;99.90;;;;;;2105913;28;20020;-71
2022/02/22 02:45:48;;;;;;;37.25;8.43;;;7.00;99.90;;;;;;2105228;28;20051;-71
2022/02/22 02:46:50;;;;;;;37.03;8.90;;;7.00;99.90;;;;;;2102079;28;20032;-71
2022/02/22 02:47:51;;;;;;;37.90;8.85;;;7.00;99.90;;;;;;2102861;28;20028;-71
2022/02/22 02:48:53;;;;;;;37.80;8.82;;;7.00;99.90;;;;;;2105376;28;20532;-71
2022/02/22 02:49:53;;;;;;;45.25;9.93;;;7.00;99.90;;;;;;2103486;28;20036;-71
2022/02/22 02:50:54;;;;;;;43.80;9.32;;;7.00;99.90;;;;;;2104507;28;20771;-71
2022/02/22 02:51:55;;;;;;;38.72;8.35;;;7.00;99.90;;;;;;2105814;28;20027;-71
2022/02/22 02:52:55;;;;;;;43.42;8.13;;;7.00;99.90;;;;;;2104158;28;20034;-71
2022/02/22 02:53:57;;;;;;;38.40;8.98;;;7.00;99.90;;;;;;2101723;28;20369;-71
2022/02/22 02:54:58;;;;;;;35.97;8.52;;;7.00;99.90;;;;;;2103606;28;20032;-71
2022/02/22 02:55:59;;;;;;;35.45;7.47;;;7.00;99.90;;;;;;2101535;28;20528;-71
2022/02/22 02:56:59;;;;;;;41.15;9.45;;;7.00;99.90;;;;;;2104467;28;20029;-72
2022/02/22 02:58:00;;;;;;;40.83;8.55;;;7.00;99.90;;;;;;2103911;28;20051;-71
2022/02/22 02:59:04;;;;;;;36.40;8.93;;;7.00;99.90;;;;;;2104056;28;20411;-71
2022/02/22 03:00:06;;;;;;;40.45;9.68;;;6.90;99.90;;;;;;2101572;28;20039;-71
2022/02/22 03:01:06;;;;;;;39.53;9.18;;;7.00;99.90;;;;;;2104995;28;20016;-71
2022/02/22 03:02:07;;;;;;;29.42;7.78;;;6.90;99.90;;;;;;2102724;28;20017;-72
2022/02/22 03:03:08;;;;;;;40.53;8.77;;;6.90;99.90;;;;;;2104477;28;20115;-71
2022/02/22 03:04:10;;;;;;;37.40;8.02;;;7.00;99.90;;;;;;2105302;28;20074;-71
2022/02/22 03:05:10;;;;;;;35.97;8.70;;;6.90;99.90;;;;;;2102790;28;20360;-71
2022/02/22 03:06:11;;;;;;;36.58;8.77;;;6.90;99.90;;;;;;2102249;28;20050;-71
2022/02/22 03:07:12;;;;;;;45.30;8.43;;;6.90;99.90;;;;;;2101415;28;20020;-71
2022/02/22 03:08:12;;;;;;;38.83;8.43;;;6.90;99.90;;;;;;2105562;28;20077;-71
2022/02/22 03:09:13;;;;;;;44.85;8.38;;;6.90;99.90;;;;;;2104879;28;20036;-71
2022/02/22 03:10:14;;;;;;;42.63;9.13;;;6.90;99.90;;;;;;2096006;28;20473;-71
2022/02/22 03:11:15;;;;;;;37.03;8.18;;;6.90;99.90;;;;;;2102928;28;20369;-71
2022/02/22 03:12:16;;;;;;;40.35;7.97;;;6.90;99.90;;;;;;2103166;28;20530;-71
2022/02/22 03:13:17;;;;;;;34.17;8.13;;;6.90;99.90;;;;;;2100971;28;20019;-71
2022/02/22 03:14:17;;;;;;;32.83;7.63;;;6.90;99.90;;;;;;2103408;28;20034;-71
2022/02/22 03:15:18;;;;;;;39.50;8.68;;;6.90;99.90;;;;;;2100383;28;20380;-71
2022/02/22 03:16:18;;;;;;;40.78;7.75;;;6.80;99.90;;;;;;2103363;28;20031;-71
2022/02/22 03:17:19;;;;;;;45.95;8.50;;;6.80;99.90;;;;;;2105010;28;20111;-71
2022/02/22 03:18:19;;;;;;;42.28;8.38;;;6.80;99.90;;;;;;2104163;28;20102;-72
2022/02/22 03:19:20;;;;;;;35.28;8.05;;;6.80;99.90;;;;;;2104113;28;20012;-71
2022/02/22 03:20:21;;;;;;;42.72;8.68;;;6.80;99.90;;;;;;2103467;28;20091;-71
2022/02/22 03:21:21;;;;;;;34.78;7.57;;;6.80;99.90;;;;;;2104039;28;20099;-71
2022/02/22 03:22:22;;;;;;;40.20;7.95;;;6.80;99.90;;;;;;2103004;28;20026;-71
2022/02/22 03:23:23;;;;;;;32.38;7.40;;;6.80;99.90;;;;;;2102388;28;20099;-71
2022/02/22 03:24:23;;;;;;;44.58;8.98;;;6.80;99.90;;;;;;2102205;28;20076;-71
2022/02/22 03:25:24;;;;;;;45.00;9.10;;;6.80;99.90;;;;;;2104250;28;20499;-71
2022/02/22 03:26:24;;;;;;;37.15;8.27;;;6.80;99.90;;;;;;2103982;28;20361;-71
2022/02/22 03:27:25;;;;;;;38.10;8.20;;;6.80;99.90;;;;;;2105354;28;20161;-71
2022/02/22 03:28:26;;;;;;;36.33;8.05;;;6.80;99.90;;;;;;2104791;28;20395;-71
2022/02/22 03:29:27;;;;;;;42.25;8.43;;;6.80;99.90;;;;;;2104389;28;20017;-71
2022/02/22 03:30:32;;;;;;;41.55;9.07;;;6.80;99.90;;;;;;2104867;28;20027;-71
2022/02/22 03:31:32;;;;;;;41.42;7.97;;;6.80;99.90;;;;;;2104034;28;20025;-71
2022/02/22 03:32:33;;;;;;;44.97;8.95;;;6.80;99.90;;;;;;2105443;28;20514;-71
2022/02/22 03:33:33;;;;;;;34.58;9.23;;;6.80;99.90;;;;;;2104430;28;20095;-71
2022/02/22 03:34:34;;;;;;;37.38;8.68;;;6.80;99.90;;;;;;2103797;28;20015;-71
2022/02/22 03:35:35;;;;;;;36.63;8.40;;;6.80;99.90;;;;;;2102043;28;20028;-71
2022/02/22 03:36:35;;;;;;;33.83;8.68;;;6.70;99.90;;;;;;2102772;28;20059;-71
2022/02/22 03:37:36;;;;;;;43.45;9.48;;;6.80;99.90;;;;;;2104248;28;20020;-71
2022/02/22 03:38:37;;;;;;;34.38;7.00;;;6.70;99.90;;;;;;2102481;28;20023;-71
2022/02/22 03:39:37;;;;;;;39.00;8.88;;;6.70;99.90;;;;;;2103144;28;20027;-71
2022/02/22 03:40:38;;;;;;;35.70;7.35;;;6.70;99.90;;;;;;2103696;28;20024;-71
2022/02/22 03:41:39;;;;;;;36.33;9.05;;;6.70;99.90;;;;;;2105294;28;20369;-71
2022/02/22 03:42:41;;;;;;;38.90;7.15;;;6.70;99.90;;;;;;2103902;28;20035;-71
2022/02/22 03:43:42;;;;;;;37.53;8.80;;;6.70;99.90;;;;;;2103800;28;20024;-72
2022/02/22 03:44:43;;;;;;;40.25;8.45;;;6.70;99.90;;;;;;2102322;28;20126;-71
2022/02/22 03:45:43;;;;;;;34.15;7.07;;;6.70;99.90;;;;;;2104058;28;20028;-71
2022/02/22 03:46:44;;;;;;;36.38;7.82;;;6.70;99.90;;;;;;2102488;28;20124;-71
2022/02/22 03:47:44;;;;;;;33.10;7.85;;;6.70;99.90;;;;;;2102221;28;20107;-71
2022/02/22 03:48:45;;;;;;;41.55;8.82;;;6.70;99.90;;;;;;2102264;28;20024;-71
2022/02/22 03:49:45;;;;;;;38.08;8.02;;;6.70;99.90;;;;;;2104935;28;20102;-71
2022/02/22 03:50:46;;;;;;;39.10;9.40;;;6.70;99.90;;;;;;2101827;28;20042;-71
2022/02/22 03:51:47;;;;;;;38.92;7.85;;;6.70;99.90;;;;;;2104682;28;20035;-71
2022/02/22 03:52:48;;;;;;;38.38;8.13;;;6.70;99.90;;;;;;2103828;28;20051;-71
2022/02/22 03:53:48;;;;;;;37.30;8.68;;;6.70;99.90;;;;;;2103132;28;20036;-71
2022/02/22 03:54:49;;;;;;;37.70;7.88;;;6.70;99.90;;;;;;2103514;28;20024;-71
2022/02/22 03:55:49;;;;;;;40.72;8.25;;;6.60;99.90;;;;;;2104698;28;20086;-71
2022/02/22 03:56:50;;;;;;;29.38;7.00;;;6.60;99.90;;;;;;2102543;28;20028;-71
2022/02/22 03:57:51;;;;;;;38.78;8.20;;;6.60;99.90;;;;;;2104159;28;20129;-71
2022/02/22 03:58:52;;;;;;;37.92;7.88;;;6.60;99.90;;;;;;2103533;28;20024;-71
2022/02/22 03:59:52;;;;;;;47.28;9.38;;;6.60;99.90;;;;;;2103298;28;20357;-71
2022/02/22 04:00:53;;;;;;;36.08;8.18;;;6.60;99.90;;;;;;2104572;28;20048;-71
2022/02/22 04:01:55;;;;;;;37.15;7.57;;;6.60;99.90;;;;;;2102211;28;20025;-71
2022/02/22 04:02:56;;;;;;;35.80;6.88;;;6.60;99.90;;;;;;2102106;28;20059;-71
2022/02/22 04:03:56;;;;;;;36.83;8.65;;;6.60;99.90;;;;;;2103422;28;20032;-71
2022/02/22 04:04:57;;;;;;;39.38;9.57;;;6.60;99.90;;;;;;2104761;28;20167;-72
2022/02/22 04:05:58;;;;;;;35.25;8.07;;;6.60;99.90;;;;;;2100093;28;20032;-71
2022/02/22 04:06:59;;;;;;;34.53;7.82;;;6.60;99.90;;;;;;2105168;28;20028;-71
2022/02/22 04:08:00;;;;;;;34.75;8.43;;;6.60;99.90;;;;;;2104421;28;20537;-71
2022/02/22 04:09:00;;;;;;;37.08;8.52;;;6.50;99.90;;;;;;2105141;28;20434;-71
2022/02/22 04:10:02;;;;;;;42.40;8.75;;;6.50;99.90;;;;;;2103765;28;20028;-71
2022/02/22 04:11:03;;;;;;;40.67;8.25;;;6.50;99.90;;;;;;2102482;28;20103;-71
2022/02/22 04:12:04;;;;;;;33.60;8.07;;;6.50;99.90;;;;;;2102315;28;20036;-71
2022/02/22 04:13:05;;;;;;;39.95;7.80;;;6.50;99.90;;;;;;2103787;28;20020;-71
2022/02/22 04:14:05;;;;;;;44.45;8.55;;;6.50;99.90;;;;;;2104221;28;20043;-71
2022/02/22 04:15:08;;;;;;;35.65;9.20;;;6.50;99.90;;;;;;2104185;28;20452;-71
2022/02/22 04:16:08;;;;;;;39.30;8.05;;;6.50;99.90;;;;;;2102673;28;20070;-71
2022/02/22 04:17:09;;;;;;;42.22;9.10;;;6.50;99.90;;;;;;2101298;28;20020;-71
2022/02/22 04:18:09;;;;;;;36.08;8.18;;;6.40;99.90;;;;;;2102531;28;20081;-71
2022/02/22 04:19:10;;;;;;;37.28;8.60;;;6.40;99.90;;;;;;2104209;28;20024;-71
2022/02/22 04:20:11;;;;;;;46.70;9.25;;;6.40;99.90;;;;;;2104149;28;20028;-71
2022/02/22 04:21:11;;;;;;;36.25;9.15;;;6.40;99.90;;;;;;2102975;28;20162;-71
2022/02/22 04:22:12;;;;;;;39.97;9.15;;;6.40;99.90;;;;;;2105044;28;20292;-71
2022/02/22 04:23:12;;;;;;;44.10;9.18;;;6.40;99.90;;;;;;2103737;28;20043;-71
2022/02/22 04:24:13;;;;;;;50.38;9.85;;;6.40;99.90;;;;;;2104353;28;20020;-71
2022/02/22 04:25:13;;;;;;;40.47;9.02;;;6.40;99.90;;;;;;2104117;28;20152;-71
2022/02/22 04:26:14;;;;;;;40.22;8.05;;;6.40;99.90;;;;;;2105486;28;20380;-71
2022/02/22 04:27:14;;;;;;;42.47;8.88;;;6.40;99.90;;;;;;2104503;28;20016;-71
2022/02/22 04:28:15;;;;;;;34.55;8.05;;;6.40;99.90;;;;;;2101698;28;20154;-71
2022/02/22 04:29:16;;;;;;;35.72;8.73;;;6.40;99.90;;;;;;2104052;28;20047;-71
2022/02/22 04:30:16;;;;;;;39.97;9.25;;;6.30;99.90;;;;;;2103079;28;20016;-71
2022/02/22 04:31:17;;;;;;;41.90;8.63;;;6.40;99.90;;;;;;2104331;28;20131;-71
2022/02/22 04:32:17;;;;;;;36.55;8.57;;;6.40;99.90;;;;;;2101860;28;20031;-71
2022/02/22 04:33:18;;;;;;;45.55;8.82;;;6.30;99.90;;;;;;2104387;28;20630;-71
2022/02/22 04:34:18;;;;;;;39.08;8.77;;;6.30;99.90;;;;;;2104957;28;20465;-71
2022/02/22 04:35:19;;;;;;;31.63;8.10;;;6.30;99.90;;;;;;2105005;28;20039;-71
2022/02/22 04:36:20;;;;;;;35.45;8.63;;;6.30;99.90;;;;;;2100610;28;20056;-71
2022/02/22 04:37:20;;;;;;;32.08;8.05;;;6.30;99.90;;;;;;2103365;28;20027;-71
2022/02/22 04:38:21;;;;;;;40.55;7.82;;;6.30;99.90;;;;;;2104763;28;20432;-71
2022/02/22 04:39:21;;;;;;;40.10;8.65;;;6.30;99.90;;;;;;2104001;28;20024;-71
2022/02/22 04:40:22;;;;;;;35.20;7.70;;;6.30;99.90;;;;;;2101906;28;20024;-71
2022/02/22 04:41:23;;;;;;;43.58;9.00;;;6.30;99.90;;;;;;2101000;28;20100;-71
2022/02/22 04:42:24;;;;;;;46.13;9.13;;;6.30;99.90;;;;;;2103289;28;20452;-71
2022/02/22 04:43:24;;;;;;;40.17;8.60;;;6.30;99.90;;;;;;2101622;28;20025;-71
2022/02/22 04:44:25;;;;;;;34.00;7.78;;;6.30;99.90;;;;;;2103888;28;20012;-71
2022/02/22 04:45:25;;;;;;;43.72;8.15;;;6.30;99.90;;;;;;2104562;28;20021;-71
2022/02/22 04:46:26;;;;;;;45.28;9.30;;;6.20;99.90;;;;;;2103258;28;20021;-71
2022/02/22 04:47:26;;;;;;;45.55;8.45;;;6.30;99.90;;;;;;2103463;28;20032;-71
2022/02/22 04:48:27;;;;;;;43.30;8.15;;;6.20;99.90;;;;;;2100198;28;20116;-71
2022/02/22 04:49:27;;;;;;;41.60;8.50;;;6.30;99.90;;;;;;2101137;28;20024;-71
2022/02/22 04:50:28;;;;;;;42.97;8.77;;;6.30;99.90;;;;;;2102228;28;20020;-71
2022/02/22 04:51:28;;;;;;;40.83;9.07;;;6.20;99.90;;;;;;2102073;28;20118;-71
2022/02/22 04:52:29;;;;;;;39.45;8.48;;;6.20;99.90;;;;;;2102876;28;20012;-71
2022/02/22 04:53:29;;;;;;;43.53;10.02;;;6.20;99.90;;;;;;2104334;28;20115;-71
2022/02/22 04:54:30;;;;;;;43.15;9.00;;;6.20;99.90;;;;;;2104340;28;20066;-71
2022/02/22 04:55:31;;;;;;;36.20;9.25;;;6.20;99.90;;;;;;2103545;28;20023;-71
2022/02/22 04:56:32;;;;;;;37.20;8.27;;;6.20;99.90;;;;;;2103386;28;20042;-71
2022/02/22 04:57:37;;;;;;;42.33;9.32;;;6.20;99.90;;;;;;2102876;28;20126;-71
2022/02/22 04:58:37;;;;;;;42.45;7.97;;;6.20;99.90;;;;;;2100950;28;20024;-71
2022/02/22 04:59:38;;;;;;;37.75;8.13;;;6.20;99.90;;;;;;2103222;28;20022;-71
2022/02/22 05:00:38;;;;;;;40.15;7.93;;;6.20;99.90;;;;;;2098762;28;20025;-71
2022/02/22 05:01:39;;;;;;;41.67;8.95;;;6.20;99.90;;;;;;2100630;28;20024;-71
2022/02/22 05:02:39;;;;;;;37.13;8.75;;;6.20;99.90;;;;;;2104360;28;20048;-71
2022/02/22 05:03:40;;;;;;;43.33;9.55;;;6.30;99.90;;;;;;2102518;28;20028;-71
2022/02/22 05:04:40;;;;;;;39.53;9.75;;;6.30;99.90;;;;;;2102948;28;20059;-71
2022/02/22 05:05:41;;;;;;;30.27;8.23;;;6.20;99.90;;;;;;2104026;28;20023;-71
2022/02/22 05:06:42;;;;;;;39.20;9.00;;;6.20;99.90;;;;;;2105212;28;20460;-71
2022/02/22 05:07:42;;;;;;;38.75;7.63;;;6.20;99.90;;;;;;2103613;28;20025;-71
2022/02/22 05:08:43;;;;;;;45.03;9.65;;;6.20;99.90;;;;;;2101744;28;20112;-71
2022/02/22 05:09:44;;;;;;;42.28;8.80;;;6.20;99.90;;;;;;2105004;28;20460;-71
2022/02/22 05:10:44;;;;;;;38.35;8.32;;;6.20;99.90;;;;;;2102760;28;20020;-71
2022/02/22 05:11:45;;;;;;;45.58;7.90;;;6.20;99.90;;;;;;2103313;28;20472;-72
2022/02/22 05:12:45;;;;;;;32.15;7.53;;;6.20;99.90;;;;;;2101021;28;20077;-71
2022/02/22 05:13:46;;;;;;;45.70;9.18;;;6.20;99.90;;;;;;2103899;28;20015;-71
2022/02/22 05:14:46;;;;;;;41.42;8.20;;;6.20;99.90;;;;;;2100125;28;20095;-71
2022/02/22 05:15:47;;;;;;;35.58;8.95;;;6.20;99.90;;;;;;2099433;28;20031;-71
2022/02/22 05:16:47;;;;;;;35.28;8.23;;;6.20;99.90;;;;;;2100913;28;20050;-71